Hoegh Transporter — LAKO7 — position and weather

sailwx.info

Track history (hours):
 
Tides and Currents Weather Stations Pressure Air Temp Water Temp Dewpoint Dewpoint Depression Visibility Wind Speed Wind Dir Waves Ship Positions

Hoegh Transporter

Last reported at 2016-Dec-04 13:20 UTC. Time now 2016-Dec-10 14:37 UTC.
Position N 36°49' W 075°47'.

Length 199 m; draft 9.9 m.

Type: Cargo ship. MMSI: 257712000.

Date/timePositionNaut miles runAvg speedWind from/ knotsBaromVisibWave heightAir tempDewpointWater temp
2016-Dec-04 13:20N 36°49' W 075°47'7 9.6
2016-Dec-04 12:33N 36°53' W 075°54'9 9.5
2016-Dec-04 11:33N 37°00' W 076°02'6212.3
2016-Dec-04 06:30N 38°02' W 076°13'5313.4
2016-Dec-04 02:33N 38°54' W 076°24'1312.5
2016-Dec-04 01:33N 39°06' W 076°24'1211.3
2016-Dec-04 00:30N 39°15' W 076°34'1 0.6
2016-Dec-03 23:30N 39°15' W 076°35'0 0.0
2016-Dec-03 22:30N 39°15' W 076°35'0 0.0
2016-Dec-03 21:30N 39°15' W 076°35'0 0.0
2016-Dec-03 20:28N 39°15' W 076°35'0 0.0
2016-Dec-03 19:30N 39°15' W 076°35'0 0.0
2016-Dec-03 18:30N 39°15' W 076°35'0 0.0
2016-Dec-03 17:30N 39°15' W 076°35'0 0.0
2016-Dec-03 16:30N 39°15' W 076°35'0 0.0
2016-Dec-03 15:28N 39°15' W 076°35'0 0.0
2016-Dec-03 14:30N 39°15' W 076°35'0 0.0
2016-Dec-03 13:30N 39°15' W 076°35'0 0.0
2016-Dec-03 12:28N 39°15' W 076°35'0 0.0
2016-Dec-03 11:30N 39°15' W 076°35'0 0.1
2016-Dec-03 10:33N 39°15' W 076°35'5 4.8
2016-Dec-03 09:33N 39°12' W 076°30'10 9.5
2016-Dec-03 08:33N 39°10' W 076°18'1212.4
2016-Dec-03 07:33N 39°21' W 076°10'1212.4
2016-Dec-03 06:33N 39°29' W 075°57'7 6.9
2016-Dec-03 05:33N 39°32' W 075°50'8 7.5
2016-Dec-03 04:33N 39°33' W 075°40'5 5.4
2016-Dec-03 03:33N 39°35' W 075°34'7 7.5
2016-Dec-03 02:33N 39°43' W 075°31'0 0.0
2016-Dec-03 01:33N 39°43' W 075°31'0 0.0
2016-Dec-03 00:33N 39°43' W 075°31'0 0.0
2016-Dec-02 23:33N 39°43' W 075°31'0 0.0
2016-Dec-02 22:33N 39°43' W 075°31'0 0.0
2016-Dec-02 21:33N 39°43' W 075°31'0 0.0
2016-Dec-02 20:33N 39°43' W 075°31'0 0.0
2016-Dec-02 19:33N 39°43' W 075°31'0 0.0
2016-Dec-02 18:33N 39°43' W 075°31'0 0.0
2016-Dec-02 17:33N 39°43' W 075°31'0 0.0
2016-Dec-02 16:33N 39°43' W 075°31'0 0.0
2016-Dec-02 15:33N 39°43' W 075°31'0 0.0
2016-Dec-02 14:33N 39°43' W 075°31'0 0.0
2016-Dec-02 13:33N 39°43' W 075°31'0 0.0
2016-Dec-02 12:33N 39°43' W 075°31'4 4.3
2016-Dec-02 11:33N 39°39' W 075°33'1312.6
2016-Dec-02 10:33N 39°26' W 075°32'1414.3
2016-Dec-02 09:33N 39°15' W 075°20'1414.3
2016-Dec-02 08:33N 39°03' W 075°10'  
2016-Nov-27 10:18N 27°10' W 079°47'1216.6
2016-Nov-27 09:34N 26°57' W 079°49'1916.8
2016-Nov-27 08:27N 26°39' W 079°51'1517.0
2016-Nov-27 07:34N 26°24' W 079°52'1717.2
2016-Nov-27 06:34N 26°07' W 079°54'1717.0
2016-Nov-27 05:34N 25°50' W 079°56'1817.7
2016-Nov-27 04:34N 25°32' W 079°58'1817.6
2016-Nov-27 03:32N 25°14' W 079°60'  
Track history (hours):
 
Tides and Currents Weather Stations Pressure Air Temp Water Temp Dewpoint Dewpoint Depression Visibility Wind Speed Wind Dir Waves Ship Positions

Hoegh Transporter

Last reported at 2016-Dec-04 13:20 UTC. Time now 2016-Dec-10 14:37 UTC.
Position N 36°49' W 075°47'.

Length 199 m; draft 9.9 m.

Type: Cargo ship. MMSI: 257712000.

Date/timePositionNaut miles runAvg speedWind from/ knotsBaromVisibWave heightAir tempDewpointWater temp
2016-Dec-04 13:20N 36°49' W 075°47'7 9.6
2016-Dec-04 12:33N 36°53' W 075°54'9 9.5
2016-Dec-04 11:33N 37°00' W 076°02'6212.3
2016-Dec-04 06:30N 38°02' W 076°13'5313.4
2016-Dec-04 02:33N 38°54' W 076°24'1312.5
2016-Dec-04 01:33N 39°06' W 076°24'1211.3
2016-Dec-04 00:30N 39°15' W 076°34'1 0.6
2016-Dec-03 23:30N 39°15' W 076°35'0 0.0
2016-Dec-03 22:30N 39°15' W 076°35'0 0.0
2016-Dec-03 21:30N 39°15' W 076°35'0 0.0
2016-Dec-03 20:28N 39°15' W 076°35'0 0.0
2016-Dec-03 19:30N 39°15' W 076°35'0 0.0
2016-Dec-03 18:30N 39°15' W 076°35'0 0.0
2016-Dec-03 17:30N 39°15' W 076°35'0 0.0
2016-Dec-03 16:30N 39°15' W 076°35'0 0.0
2016-Dec-03 15:28N 39°15' W 076°35'0 0.0
2016-Dec-03 14:30N 39°15' W 076°35'0 0.0
2016-Dec-03 13:30N 39°15' W 076°35'0 0.0
2016-Dec-03 12:28N 39°15' W 076°35'0 0.0
2016-Dec-03 11:30N 39°15' W 076°35'0 0.1
2016-Dec-03 10:33N 39°15' W 076°35'5 4.8
2016-Dec-03 09:33N 39°12' W 076°30'10 9.5
2016-Dec-03 08:33N 39°10' W 076°18'1212.4
2016-Dec-03 07:33N 39°21' W 076°10'1212.4
2016-Dec-03 06:33N 39°29' W 075°57'7 6.9
2016-Dec-03 05:33N 39°32' W 075°50'8 7.5
2016-Dec-03 04:33N 39°33' W 075°40'5 5.4
2016-Dec-03 03:33N 39°35' W 075°34'7 7.5
2016-Dec-03 02:33N 39°43' W 075°31'0 0.0
2016-Dec-03 01:33N 39°43' W 075°31'0 0.0
2016-Dec-03 00:33N 39°43' W 075°31'0 0.0
2016-Dec-02 23:33N 39°43' W 075°31'0 0.0
2016-Dec-02 22:33N 39°43' W 075°31'0 0.0
2016-Dec-02 21:33N 39°43' W 075°31'0 0.0
2016-Dec-02 20:33N 39°43' W 075°31'0 0.0
2016-Dec-02 19:33N 39°43' W 075°31'0 0.0
2016-Dec-02 18:33N 39°43' W 075°31'0 0.0
2016-Dec-02 17:33N 39°43' W 075°31'0 0.0
2016-Dec-02 16:33N 39°43' W 075°31'0 0.0
2016-Dec-02 15:33N 39°43' W 075°31'0 0.0
2016-Dec-02 14:33N 39°43' W 075°31'0 0.0
2016-Dec-02 13:33N 39°43' W 075°31'0 0.0
2016-Dec-02 12:33N 39°43' W 075°31'4 4.3
2016-Dec-02 11:33N 39°39' W 075°33'1312.6
2016-Dec-02 10:33N 39°26' W 075°32'1414.3
2016-Dec-02 09:33N 39°15' W 075°20'1414.3
2016-Dec-02 08:33N 39°03' W 075°10'  
2016-Nov-27 10:18N 27°10' W 079°47'1216.6
2016-Nov-27 09:34N 26°57' W 079°49'1916.8
2016-Nov-27 08:27N 26°39' W 079°51'1517.0
2016-Nov-27 07:34N 26°24' W 079°52'1717.2
2016-Nov-27 06:34N 26°07' W 079°54'1717.0
2016-Nov-27 05:34N 25°50' W 079°56'1817.7
2016-Nov-27 04:34N 25°32' W 079°58'1817.6
2016-Nov-27 03:32N 25°14' W 079°60'  

Dump ship's entire track history